createdAt,value
2019-02-04T00:01:50.298Z,102439.32
2019-02-04T00:04:20.566Z,102447.05
2019-02-04T00:06:50.811Z,102445.59
2019-02-04T00:09:21.260Z,102443.72
2019-02-04T00:11:52.197Z,102441.07
2019-02-04T00:14:22.462Z,102443.41
2019-02-04T00:16:52.809Z,102446.87
2019-02-04T00:19:23.102Z,102449.60
2019-02-04T00:21:53.344Z,102449.27
2019-02-04T00:24:23.852Z,102450.23
2019-02-04T00:26:54.066Z,102444.59
2019-02-04T00:29:24.891Z,102447.18
2019-02-04T00:31:55.237Z,102441.02
2019-02-04T00:34:25.536Z,102436.91
2019-02-04T00:36:55.790Z,102449.21
2019-02-04T00:39:26.283Z,102440.84
2019-02-04T00:41:56.568Z,102443.91
2019-02-04T00:44:26.876Z,102455.66
2019-02-04T00:46:57.443Z,102454.43
2019-02-04T00:49:27.651Z,102456.52
2019-02-04T00:51:58.541Z,102459.38
2019-02-04T00:54:28.926Z,102461.38
2019-02-04T00:56:59.452Z,102459.76
2019-02-04T00:59:29.726Z,102465.50
2019-02-04T01:01:59.942Z,102469.77
2019-02-04T01:04:30.211Z,102471.03
2019-02-04T01:07:00.812Z,102472.89
2019-02-04T01:09:31.153Z,102467.98
2019-02-04T01:12:01.652Z,102467.14
2019-02-04T01:14:32.038Z,102465.23
2019-02-04T01:17:03.800Z,102467.40
2019-02-04T01:19:34.545Z,102473.04
2019-02-04T01:22:04.928Z,102477.71
2019-02-04T01:24:35.259Z,102481.76
2019-02-04T01:27:05.550Z,102490.00
2019-02-04T01:29:35.796Z,102486.36
2019-02-04T01:32:06.509Z,102487.20
2019-02-04T01:34:36.772Z,102493.17
2019-02-04T01:37:07.528Z,102494.92
2019-02-04T01:39:37.826Z,102498.63
2019-02-04T01:42:08.066Z,102499.19
2019-02-04T01:44:38.617Z,102498.70
2019-02-04T01:47:14.543Z,102505.59
2019-02-04T01:49:40.821Z,102503.27
2019-02-04T01:52:11.346Z,102507.97
2019-02-04T01:54:41.667Z,102508.23
2019-02-04T01:57:12.324Z,102509.35
2019-02-04T01:59:42.551Z,102506.49
2019-02-04T02:02:12.881Z,102506.08
2019-02-04T02:04:43.102Z,102513.21
2019-02-04T02:07:13.277Z,102514.95
2019-02-04T02:09:43.616Z,102517.05
2019-02-04T02:12:13.832Z,102517.74
2019-02-04T02:14:44.117Z,102519.41
2019-02-04T02:17:25.651Z,102512.98
2019-02-04T02:19:47.596Z,102519.25
2019-02-04T02:22:17.905Z,102518.39
2019-02-04T02:24:48.468Z,102519.67
2019-02-04T02:27:18.976Z,102518.90
2019-02-04T02:29:49.441Z,102514.72
2019-02-04T02:32:19.703Z,102513.78
2019-02-04T02:34:49.946Z,102510.55
2019-02-04T02:37:20.662Z,102505.56
2019-02-04T02:39:50.886Z,102505.88
2019-02-04T02:42:21.166Z,102500.30
2019-02-04T02:44:51.499Z,102500.14
2019-02-04T02:47:22.118Z,102504.89
2019-02-04T02:49:52.970Z,102501.64
2019-02-04T02:52:23.260Z,102497.34
2019-02-04T02:54:53.560Z,102509.28
2019-02-04T02:57:23.847Z,102508.91
2019-02-04T02:59:54.301Z,102498.98
2019-02-04T03:02:24.521Z,102502.27
2019-02-04T03:04:55.055Z,102503.48
2019-02-04T03:07:25.479Z,102504.27
2019-02-04T03:09:55.746Z,102506.20
2019-02-04T03:12:26.043Z,102502.77
2019-02-04T03:14:56.696Z,102501.74
2019-02-04T03:17:27.261Z,102503.60
2019-02-04T03:19:57.536Z,102502.16
2019-02-04T03:22:27.890Z,102499.91
2019-02-04T03:24:58.167Z,102502.06
2019-02-04T03:27:28.728Z,102504.63
2019-02-04T03:29:59.776Z,102514.27
2019-02-04T03:32:30.444Z,102511.76
2019-02-04T03:35:00.673Z,102515.75
2019-02-04T03:37:30.977Z,102511.86
2019-02-04T03:40:01.491Z,102516.44
2019-02-04T03:42:31.824Z,102521.30
2019-02-04T03:45:02.288Z,102524.13
2019-02-04T03:47:32.563Z,102525.61
2019-02-04T03:50:03.248Z,102520.95
2019-02-04T03:52:33.774Z,102521.66
2019-02-04T03:55:05.201Z,102527.77
2019-02-04T03:57:35.565Z,102529.02
2019-02-04T04:00:15.122Z,102521.82
2019-02-04T04:02:45.508Z,102519.89
2019-02-04T04:05:16.122Z,102520.80
2019-02-04T04:07:46.678Z,102523.92
2019-02-04T04:10:17.339Z,102520.05
2019-02-04T04:12:48.157Z,102515.63
2019-02-04T04:15:19.033Z,102516.81
2019-02-04T04:17:49.791Z,102518.30
2019-02-04T04:20:21.240Z,102507.48
2019-02-04T04:22:51.507Z,102504.05
2019-02-04T04:25:21.794Z,102499.30
2019-02-04T04:27:52.127Z,102498.67
2019-02-04T04:30:25.467Z,102494.50
2019-02-04T04:32:56.196Z,102495.02
2019-02-04T04:35:26.463Z,102499.67
2019-02-04T04:37:56.684Z,102504.42
2019-02-04T04:40:27.020Z,102503.30
2019-02-04T04:42:57.323Z,102503.05
2019-02-04T04:45:27.819Z,102499.63
2019-02-04T04:47:58.144Z,102503.63
2019-02-04T04:50:28.483Z,102498.58
2019-02-04T04:52:58.890Z,102494.34
2019-02-04T04:55:29.593Z,102494.50
2019-02-04T04:57:59.838Z,102500.75
2019-02-04T05:00:31.875Z,102493.93
2019-02-04T05:03:02.581Z,102494.09
2019-02-04T05:05:33.120Z,102495.16
2019-02-04T05:08:03.388Z,102491.81
2019-02-04T05:10:33.770Z,102494.50
2019-02-04T05:13:04.249Z,102493.77
2019-02-04T05:15:34.633Z,102485.77
2019-02-04T05:18:04.911Z,102475.23
2019-02-04T05:20:35.163Z,102492.62
2019-02-04T05:23:05.532Z,102493.11
2019-02-04T05:25:36.397Z,102491.01
2019-02-04T05:28:06.734Z,102490.84
2019-02-04T05:30:36.977Z,102491.97
2019-02-04T05:33:07.423Z,102495.13
2019-02-04T05:35:38.052Z,102502.74
2019-02-04T05:38:08.301Z,102501.27
2019-02-04T05:40:38.611Z,102499.72
2019-02-04T05:43:08.858Z,102506.52
2019-02-04T05:45:39.415Z,102503.56
2019-02-04T05:48:09.704Z,102509.03
2019-02-04T05:50:39.988Z,102507.71
2019-02-04T05:53:10.436Z,102507.44
2019-02-04T05:55:40.661Z,102501.89
2019-02-04T05:58:11.021Z,102493.57
2019-02-04T06:00:44.530Z,102490.23
2019-02-04T06:03:14.788Z,102488.86
2019-02-04T06:05:45.378Z,102488.04
2019-02-04T06:08:15.631Z,102487.44
2019-02-04T06:10:45.876Z,102491.50
2019-02-04T06:13:16.168Z,102490.95
2019-02-04T06:15:46.410Z,102494.95
2019-02-04T06:18:16.900Z,102494.90
2019-02-04T06:20:47.214Z,102490.69
2019-02-04T06:23:17.554Z,102483.32
2019-02-04T06:25:48.044Z,102485.64
2019-02-04T06:28:18.719Z,102492.09
2019-02-04T06:30:49.261Z,102485.43
2019-02-04T06:33:19.983Z,102478.52
2019-02-04T06:35:50.488Z,102479.12
2019-02-04T06:38:20.899Z,102488.88
2019-02-04T06:40:51.524Z,102485.16
2019-02-04T06:43:22.077Z,102482.59
2019-02-04T06:45:52.805Z,102480.57
2019-02-04T06:48:23.642Z,102475.75
2019-02-04T06:50:55.230Z,102473.65
2019-02-04T06:53:25.458Z,102471.81
2019-02-04T06:55:55.737Z,102480.98
2019-02-04T06:58:26.397Z,102477.59
2019-02-04T07:00:56.873Z,102486.30
2019-02-04T07:03:27.206Z,102480.08
2019-02-04T07:05:57.465Z,102479.54
2019-02-04T07:08:27.968Z,102480.60
2019-02-04T07:10:58.297Z,102481.32
2019-02-04T07:13:28.708Z,102484.77
2019-02-04T07:15:59.347Z,102483.78
2019-02-04T07:18:30.207Z,102479.39
2019-02-04T07:21:00.777Z,102483.25
2019-02-04T07:23:31.090Z,102481.20
2019-02-04T07:26:01.632Z,102483.23
2019-02-04T07:28:31.915Z,102482.20
2019-02-04T07:31:02.506Z,102484.12
2019-02-04T07:33:32.781Z,102481.17
2019-02-04T07:36:03.627Z,102475.84
2019-02-04T07:38:34.065Z,102472.87
2019-02-04T07:41:04.344Z,102469.98
2019-02-04T07:43:34.584Z,102472.56
2019-02-04T07:46:05.100Z,102471.19
2019-02-04T07:48:35.409Z,102472.21
2019-02-04T07:51:05.875Z,102468.92
2019-02-04T07:53:36.536Z,102471.02
2019-02-04T07:56:07.038Z,102459.73
2019-02-04T07:58:37.329Z,102453.55
2019-02-04T08:01:07.658Z,102451.13
2019-02-04T08:03:38.002Z,102441.55
2019-02-04T08:06:08.714Z,102444.63
2019-02-04T08:08:39.000Z,102444.70
2019-02-04T08:11:09.384Z,102447.31
2019-02-04T08:13:39.993Z,102453.06
2019-02-04T08:16:10.274Z,102430.30
2019-02-04T08:18:40.613Z,102450.61
2019-02-04T08:21:10.873Z,102448.30
2019-02-04T08:23:41.700Z,102444.65
2019-02-04T08:26:12.427Z,102456.47
2019-02-04T08:28:42.759Z,102448.02
2019-02-04T08:31:13.035Z,102449.48
2019-02-04T08:33:43.662Z,102445.38
2019-02-04T08:36:13.951Z,102453.89
2019-02-04T08:38:44.273Z,102449.88
2019-02-04T08:41:14.627Z,102455.55
2019-02-04T08:43:45.246Z,102446.41
2019-02-04T08:46:15.827Z,102450.33
2019-02-04T08:48:46.546Z,102445.33
2019-02-04T08:51:17.160Z,102450.06
2019-02-04T08:53:47.450Z,102451.46
2019-02-04T08:56:18.156Z,102451.43
2019-02-04T08:58:48.533Z,102444.42
2019-02-04T09:01:18.794Z,102445.41
2019-02-04T09:03:49.055Z,102446.55
2019-02-04T09:06:19.430Z,102450.73
2019-02-04T09:08:49.796Z,102446.37
2019-02-04T09:11:20.038Z,102448.27
2019-02-04T09:13:50.415Z,102450.23
2019-02-04T09:16:20.967Z,102447.17
2019-02-04T09:18:51.261Z,102450.41
2019-02-04T09:21:21.869Z,102453.59
2019-02-04T09:23:52.456Z,102455.78
2019-02-04T09:26:22.725Z,102461.91
2019-02-04T09:28:53.713Z,102456.73
2019-02-04T09:31:23.972Z,102458.58
2019-02-04T09:33:54.256Z,102451.99
2019-02-04T09:36:24.663Z,102456.31
2019-02-04T09:38:54.935Z,102453.92
2019-02-04T09:41:25.213Z,102448.66
2019-02-04T09:43:55.927Z,102451.73
2019-02-04T09:46:26.245Z,102447.78
2019-02-04T09:48:56.570Z,102441.58
2019-02-04T09:51:26.993Z,102438.88
2019-02-04T09:53:57.377Z,102436.92
2019-02-04T09:56:27.655Z,102433.08
2019-02-04T09:58:58.188Z,102443.19
2019-02-04T10:01:28.457Z,102431.73
2019-02-04T10:03:59.860Z,102427.29
2019-02-04T10:06:30.189Z,102430.72
2019-02-04T10:09:00.974Z,102426.50
2019-02-04T10:11:31.515Z,102436.01
2019-02-04T10:14:01.932Z,102431.56
2019-02-04T10:16:32.308Z,102436.20
2019-02-04T10:19:05.073Z,102431.48
2019-02-04T10:21:35.615Z,102436.08
2019-02-04T10:24:06.308Z,102437.02
2019-02-04T10:26:36.656Z,102434.88
2019-02-04T10:29:07.055Z,102430.42
2019-02-04T10:31:37.384Z,102427.76
2019-02-04T10:34:08.022Z,102424.03
2019-02-04T10:36:38.557Z,102419.84
2019-02-04T10:39:10.596Z,102412.75
2019-02-04T10:41:41.127Z,102419.16
2019-02-04T10:44:11.691Z,102414.23
2019-02-04T10:46:42.101Z,102411.12
2019-02-04T10:49:12.488Z,102405.77
2019-02-04T10:51:43.213Z,102406.29
2019-02-04T10:54:13.610Z,102401.45
2019-02-04T10:56:44.226Z,102397.40
2019-02-04T10:59:14.580Z,102394.70
2019-02-04T11:01:44.960Z,102390.18
2019-02-04T11:04:15.747Z,102386.60
2019-02-04T11:06:46.286Z,102391.08
2019-02-04T11:09:19.432Z,102389.52
2019-02-04T11:11:49.791Z,102379.70
2019-02-04T11:17:59.222Z,102372.08
2019-02-04T11:20:30.638Z,102372.50
2019-02-04T11:23:01.857Z,102376.43
2019-02-04T11:25:32.252Z,102366.28
2019-02-04T11:31:22.142Z,102373.02
2019-02-04T11:32:13.892Z,102371.47
2019-02-04T11:34:44.610Z,102371.97
2019-02-04T11:37:15.047Z,102374.42
2019-02-04T11:39:45.803Z,102377.61
2019-02-04T11:42:16.559Z,102378.78
2019-02-04T11:44:47.132Z,102375.98
2019-02-04T11:47:17.970Z,102367.97
2019-02-04T11:49:48.367Z,102360.25
2019-02-04T11:52:18.823Z,102362.05
2019-02-04T11:54:49.711Z,102363.39
2019-02-04T11:57:20.075Z,102359.34
2019-02-04T11:59:50.403Z,102360.42
2019-02-04T12:02:20.971Z,102370.84
2019-02-04T12:04:51.340Z,102357.27
2019-02-04T12:07:21.890Z,102360.86
2019-02-04T12:09:52.367Z,102362.22
2019-02-04T12:12:22.735Z,102366.73
2019-02-04T12:14:53.689Z,102364.86
2019-02-04T12:17:24.550Z,102361.45
2019-02-04T12:19:55.247Z,102360.63
2019-02-04T12:22:25.593Z,102353.89
2019-02-04T12:24:56.106Z,102358.14
2019-02-04T12:27:31.997Z,102359.22
2019-02-04T12:29:58.447Z,102354.52
2019-02-04T12:32:29.179Z,102346.73
2019-02-04T12:34:59.474Z,102350.12
2019-02-04T12:37:32.428Z,102346.95
2019-02-04T12:40:01.976Z,102343.16
2019-02-04T12:42:32.454Z,102336.73
2019-02-04T12:45:02.985Z,102341.07
2019-02-04T12:47:34.392Z,102341.16
2019-02-04T12:50:05.172Z,102340.64
2019-02-04T12:52:35.501Z,102336.64
2019-02-04T12:55:07.182Z,102335.64
2019-02-04T12:57:37.480Z,102339.43
2019-02-04T13:00:12.782Z,102340.29
2019-02-04T13:02:43.128Z,102331.02
2019-02-04T13:05:27.824Z,102327.60
2019-02-04T13:07:58.239Z,102320.61
2019-02-04T13:10:28.731Z,102325.05
2019-02-04T13:12:59.209Z,102325.57
2019-02-04T13:15:29.610Z,102324.01
2019-02-04T13:18:00.055Z,102317.87
2019-02-04T13:20:30.472Z,102324.28
2019-02-04T13:23:01.193Z,102319.54
2019-02-04T13:25:31.516Z,102309.76
2019-02-04T13:28:01.872Z,102309.02
2019-02-04T13:30:32.808Z,102307.92
2019-02-04T13:33:03.118Z,102308.13
2019-02-04T13:35:33.505Z,102298.22
2019-02-04T13:38:05.312Z,102297.53
2019-02-04T13:40:35.614Z,102293.40
2019-02-04T13:43:06.729Z,102288.06
2019-02-04T13:45:36.981Z,102287.97
2019-02-04T13:48:08.595Z,102278.67
2019-02-04T13:50:40.156Z,102289.11
2019-02-04T13:53:10.750Z,102284.16
2019-02-04T13:55:41.923Z,102275.44
2019-02-04T13:58:12.521Z,102272.09
2019-02-04T14:00:42.924Z,102266.80
2019-02-04T14:03:13.343Z,102261.19
2019-02-04T14:06:25.792Z,102259.44
2019-02-04T14:08:56.168Z,102268.75
2019-02-04T14:11:26.843Z,102256.09
2019-02-04T14:13:57.080Z,102265.66
2019-02-04T14:16:31.426Z,102257.65
2019-02-04T14:19:01.746Z,102264.95
2019-02-04T14:21:32.069Z,102261.43
2019-02-04T14:24:02.377Z,102254.88
2019-02-04T14:26:32.918Z,102253.18
2019-02-04T14:29:03.239Z,102254.67
2019-02-04T14:31:35.392Z,102249.02
2019-02-04T14:34:06.731Z,102248.36
2019-02-04T14:36:37.003Z,102235.72
2019-02-04T14:39:13.029Z,102243.19
2019-02-04T14:41:43.310Z,102235.69
2019-02-04T14:44:38.007Z,102233.64
2019-02-04T14:47:25.880Z,102225.82
2019-02-04T14:50:47.635Z,102218.62
2019-02-04T14:54:07.569Z,102215.16
2019-02-04T14:57:25.354Z,102218.45
2019-02-04T15:00:12.747Z,102219.09
2019-02-04T15:03:24.093Z,102217.55
2019-02-04T15:06:27.748Z,102210.91
2019-02-04T15:09:41.373Z,102214.75
2019-02-04T15:12:56.044Z,102198.12
2019-02-04T15:16:08.246Z,102205.92
2019-02-04T15:19:41.147Z,102205.66
2019-02-04T15:22:38.090Z,102208.79
2019-02-04T15:25:58.511Z,102206.97
2019-02-04T15:28:58.569Z,102198.36
2019-02-04T15:31:59.989Z,102182.21
2019-02-04T15:35:51.166Z,102181.95
2019-02-04T15:39:07.721Z,102189.09
2019-02-04T15:42:31.919Z,102179.21
2019-02-04T15:45:53.159Z,102186.02
2019-02-04T15:48:42.469Z,102171.30
2019-02-04T15:51:29.955Z,102183.26
2019-02-04T15:54:04.712Z,102177.69
2019-02-04T15:56:35.271Z,102178.55
2019-02-04T15:59:05.701Z,102179.88
2019-02-04T16:01:38.350Z,102184.92
2019-02-04T16:04:32.393Z,102195.43
2019-02-04T16:07:03.279Z,102199.91
2019-02-04T16:09:33.827Z,102199.31
2019-02-04T16:12:04.142Z,102202.17
2019-02-04T16:14:34.775Z,102204.34
2019-02-04T16:17:08.293Z,102208.47
2019-02-04T16:19:39.494Z,102180.73
2019-02-04T16:22:09.753Z,102164.24
2019-02-04T16:24:39.991Z,102163.26
2019-02-04T16:27:11.208Z,102174.58
2019-02-04T16:29:41.508Z,102180.39
2019-02-04T16:32:12.447Z,102190.70
2019-02-04T16:34:42.817Z,102189.76
2019-02-04T16:37:13.054Z,102201.67
2019-02-04T16:39:43.599Z,102208.67
2019-02-04T16:42:13.890Z,102199.86
2019-02-04T16:44:44.192Z,102205.98
2019-02-04T16:47:14.425Z,102206.66
2019-02-04T16:49:44.925Z,102210.23
2019-02-04T16:52:15.338Z,102205.53
2019-02-04T16:54:45.926Z,102197.98
2019-02-04T16:57:16.260Z,102191.08
2019-02-04T16:59:46.472Z,102196.73
2019-02-04T17:02:16.735Z,102203.22
2019-02-04T17:04:47.559Z,102196.27
2019-02-04T17:07:17.766Z,102170.38
2019-02-04T17:09:48.076Z,102188.54
2019-02-04T17:12:18.454Z,102177.64
2019-02-04T17:14:48.673Z,102179.98
2019-02-04T17:17:20.584Z,102183.45
2019-02-04T17:19:50.957Z,102177.55
2019-02-04T17:22:21.527Z,102174.95
2019-02-04T17:24:51.844Z,102159.91
2019-02-04T17:27:22.178Z,102163.09
2019-02-04T17:29:52.432Z,102169.63
2019-02-04T17:32:22.769Z,102161.80
2019-02-04T17:34:53.053Z,102175.30
2019-02-04T17:37:23.269Z,102168.36
2019-02-04T17:39:53.646Z,102163.14
2019-02-04T17:42:23.953Z,102161.98
2019-02-04T17:44:54.169Z,102172.27
2019-02-04T17:47:24.549Z,102172.77
2019-02-04T17:49:55.008Z,102170.77
2019-02-04T17:52:25.543Z,102166.07
2019-02-04T17:54:56.022Z,102167.41
2019-02-04T17:57:26.370Z,102152.46
2019-02-04T17:59:56.962Z,102146.84
2019-02-04T18:02:27.514Z,102137.91
2019-02-04T18:05:00.820Z,102130.59
2019-02-04T18:07:30.227Z,102120.34
2019-02-04T18:10:00.516Z,102108.22
2019-02-04T18:12:30.919Z,102105.28
2019-02-04T18:15:01.264Z,102101.41
2019-02-04T18:17:31.574Z,102094.08
2019-02-04T18:20:01.879Z,102096.28
2019-02-04T18:22:32.207Z,102097.20
2019-02-04T18:25:02.391Z,102101.30
2019-02-04T18:27:32.661Z,102093.89
2019-02-04T18:30:03.031Z,102094.52
2019-02-04T18:32:33.459Z,102102.81
2019-02-04T18:35:03.677Z,102106.69
2019-02-04T18:37:34.067Z,102114.02
2019-02-04T18:40:05.038Z,102114.92
2019-02-04T18:42:35.323Z,102107.49
2019-02-04T18:45:10.024Z,102115.34
2019-02-04T18:47:40.551Z,102120.69
2019-02-04T18:50:11.088Z,102110.03
2019-02-04T18:52:41.693Z,102121.44
2019-02-04T18:55:15.903Z,102128.05
2019-02-04T18:57:46.269Z,102128.34
2019-02-04T19:00:20.447Z,102122.95
2019-02-04T19:02:50.899Z,102133.89
2019-02-04T19:05:21.470Z,102130.75
2019-02-04T19:07:52.293Z,102135.02
2019-02-04T19:10:23.205Z,102136.20
2019-02-04T19:12:54.822Z,102133.99
2019-02-04T19:15:25.610Z,102140.66
2019-02-04T19:18:00.003Z,102148.16
2019-02-04T19:20:30.300Z,102148.91
2019-02-04T19:23:01.405Z,102155.58
2019-02-04T19:25:31.681Z,102150.20
2019-02-04T19:28:02.353Z,102149.75
2019-02-04T19:31:07.182Z,102142.17
2019-02-04T19:33:37.452Z,102143.41
2019-02-04T19:36:10.171Z,102153.68
2019-02-04T19:38:40.687Z,102150.30
2019-02-04T19:41:11.079Z,102151.36
2019-02-04T19:43:41.372Z,102156.63
2019-02-04T19:46:11.615Z,102157.72
2019-02-04T19:48:41.980Z,102146.31
2019-02-04T19:51:12.252Z,102149.86
2019-02-04T19:53:42.548Z,102144.38
2019-02-04T19:56:12.943Z,102138.06
2019-02-04T19:58:43.200Z,102147.97
2019-02-04T20:01:13.531Z,102139.38
2019-02-04T20:03:43.887Z,102139.87
2019-02-04T20:06:14.904Z,102144.38
2019-02-04T20:08:45.174Z,102137.42
2019-02-04T20:11:16.825Z,102136.09
2019-02-04T20:13:47.166Z,102129.63
2019-02-04T20:16:17.422Z,102127.59
2019-02-04T20:18:47.760Z,102133.78
2019-02-04T20:21:18.041Z,102126.67
2019-02-04T20:23:48.550Z,102135.82
2019-02-04T20:26:18.881Z,102137.43
2019-02-04T20:28:49.126Z,102142.27
2019-02-04T20:31:19.322Z,102138.83
2019-02-04T20:33:51.856Z,102142.44
2019-02-04T20:36:22.098Z,102136.78
2019-02-04T20:38:52.364Z,102138.28
2019-02-04T20:41:22.610Z,102140.84
2019-02-04T20:43:52.864Z,102140.91
2019-02-04T20:46:23.215Z,102144.31
2019-02-04T20:48:53.574Z,102147.80
2019-02-04T20:51:24.007Z,102146.09
2019-02-04T20:53:54.649Z,102145.41
2019-02-04T20:56:24.986Z,102142.23
2019-02-04T20:58:55.269Z,102145.36
2019-02-04T21:01:25.763Z,102132.98
2019-02-04T21:03:59.893Z,102136.36
2019-02-04T21:06:30.247Z,102140.55
2019-02-04T21:09:00.756Z,102150.22
2019-02-04T21:11:31.100Z,102141.26
2019-02-04T21:14:02.879Z,102143.89
2019-02-04T21:16:33.400Z,102146.20
2019-02-04T21:19:03.776Z,102147.99
2019-02-04T21:21:34.413Z,102148.63
2019-02-04T21:24:05.317Z,102156.51
2019-02-04T21:26:35.584Z,102154.36
2019-02-04T21:29:05.914Z,102152.61
2019-02-04T21:31:36.318Z,102145.82
2019-02-04T21:34:06.981Z,102148.14
2019-02-04T21:36:37.225Z,102156.12
2019-02-04T21:39:09.490Z,102158.55
2019-02-04T21:41:40.037Z,102164.89
2019-02-04T21:44:10.419Z,102164.39
2019-02-04T21:46:40.868Z,102155.23
2019-02-04T21:49:11.057Z,102158.53
2019-02-04T21:51:41.591Z,102156.64
2019-02-04T21:54:12.281Z,102155.28
2019-02-04T21:56:42.853Z,102154.05
2019-02-04T21:59:13.133Z,102162.36
2019-02-04T22:01:43.386Z,102158.54
2019-02-04T22:04:13.718Z,102145.59
2019-02-04T22:06:44.075Z,102151.72
2019-02-04T22:09:14.380Z,102152.58
2019-02-04T22:11:44.869Z,102151.59
2019-02-04T22:14:15.481Z,102150.17
2019-02-04T22:16:46.020Z,102132.86
2019-02-04T22:19:16.250Z,102136.44
2019-02-04T22:21:46.511Z,102135.92
2019-02-04T22:24:17.248Z,102134.91
2019-02-04T22:26:47.534Z,102136.91
2019-02-04T22:29:18.164Z,102146.64
2019-02-04T22:31:48.711Z,102144.96
2019-02-04T22:34:20.374Z,102147.02
2019-02-04T22:36:51.047Z,102138.35
2019-02-04T22:39:21.325Z,102137.66
2019-02-04T22:41:51.676Z,102131.03
2019-02-04T22:44:21.976Z,102126.56
2019-02-04T22:46:52.499Z,102109.38
2019-02-04T22:49:22.853Z,102103.04
2019-02-04T22:51:53.525Z,102130.07
2019-02-04T22:54:23.825Z,102163.61
2019-02-04T22:56:54.298Z,102154.22
2019-02-04T22:59:24.532Z,102157.08
2019-02-04T23:01:57.856Z,102151.96
2019-02-04T23:04:28.534Z,102163.98
2019-02-04T23:06:58.734Z,102154.05
2019-02-04T23:09:29.074Z,102160.13
2019-02-04T23:11:59.733Z,102157.39
2019-02-04T23:14:32.318Z,102159.13
2019-02-04T23:17:03.249Z,102160.45
2019-02-04T23:19:33.519Z,102159.88
2019-02-04T23:22:03.938Z,102155.39
2019-02-04T23:24:34.508Z,102157.97
2019-02-04T23:27:09.936Z,102145.29
2019-02-04T23:29:40.469Z,102154.24
2019-02-04T23:32:10.872Z,102152.14
2019-02-04T23:34:41.222Z,102150.16
2019-02-04T23:37:11.503Z,102148.81
2019-02-04T23:39:41.855Z,102148.89
2019-02-04T23:42:12.553Z,102151.61
2019-02-04T23:44:42.829Z,102157.23
2019-02-04T23:47:13.191Z,102165.09
2019-02-04T23:49:43.483Z,102165.28
2019-02-04T23:52:13.799Z,102167.49
2019-02-04T23:54:44.410Z,102170.50
2019-02-04T23:57:14.847Z,102175.00
2019-02-04T23:59:45.126Z,102181.70
